createdAt,value
2023-02-02T00:03:47.589Z,20.00
2023-02-02T00:08:44.092Z,21.77
2023-02-02T00:13:40.505Z,22.08
2023-02-02T00:18:36.820Z,19.65
2023-02-02T00:23:33.287Z,19.45
2023-02-02T00:28:29.623Z,14.32
2023-02-02T00:33:25.968Z,13.38
2023-02-02T00:38:22.487Z,19.70
2023-02-02T00:43:18.890Z,23.05
2023-02-02T00:48:15.518Z,16.70
2023-02-02T00:53:11.847Z,11.85
2023-02-02T00:58:08.219Z,11.35
2023-02-02T01:03:06.969Z,20.92
2023-02-02T01:08:03.800Z,24.38
2023-02-02T01:13:00.251Z,14.18
2023-02-02T01:17:57.403Z,25.17
2023-02-02T01:22:53.805Z,16.98
2023-02-02T01:27:50.150Z,6.22
2023-02-02T01:32:46.535Z,17.20
2023-02-02T01:37:42.869Z,15.05
2023-02-02T01:42:39.177Z,14.80
2023-02-02T01:47:47.615Z,24.67
2023-02-02T01:52:48.734Z,15.63
2023-02-02T01:57:51.791Z,12.82
2023-02-02T02:02:49.247Z,19.55
2023-02-02T02:07:49.116Z,16.63
2023-02-02T02:12:48.146Z,16.58
2023-02-02T02:18:21.491Z,14.73
2023-02-02T02:24:09.523Z,13.05
2023-02-02T02:29:27.383Z,16.55
2023-02-02T02:34:47.942Z,11.57
2023-02-02T02:40:16.591Z,10.13
2023-02-02T02:45:14.128Z,16.42
2023-02-02T02:50:11.593Z,13.02
2023-02-02T02:55:10.982Z,9.57
2023-02-02T03:00:48.113Z,16.08
2023-02-02T03:05:47.495Z,15.88
2023-02-02T03:10:45.954Z,8.93
2023-02-02T03:15:44.322Z,5.70
2023-02-02T03:20:43.553Z,11.90
2023-02-02T03:25:40.168Z,11.93
2023-02-02T03:30:38.199Z,16.27
2023-02-02T03:35:34.653Z,11.83
2023-02-02T03:40:31.060Z,14.35
2023-02-02T03:45:28.499Z,19.77
2023-02-02T03:50:25.505Z,10.90
2023-02-02T03:55:22.245Z,12.50
2023-02-02T04:00:19.165Z,14.50
2023-02-02T04:05:15.726Z,13.93
2023-02-02T04:10:12.181Z,11.27
2023-02-02T04:15:09.157Z,19.70
2023-02-02T04:20:06.721Z,13.10
2023-02-02T04:25:03.721Z,20.88
2023-02-02T04:30:00.182Z,14.10
2023-02-02T04:34:56.589Z,16.75
2023-02-02T04:39:55.269Z,15.48
2023-02-02T04:44:51.629Z,12.75
2023-02-02T04:49:47.942Z,14.35
2023-02-02T04:54:44.331Z,11.45
2023-02-02T04:59:42.495Z,14.40
2023-02-02T05:04:39.103Z,9.70
2023-02-02T05:09:35.488Z,5.60
2023-02-02T05:14:31.867Z,16.05
2023-02-02T05:19:28.215Z,7.10
2023-02-02T05:24:24.649Z,10.18
2023-02-02T05:29:20.992Z,13.73
2023-02-02T05:34:17.418Z,14.30
2023-02-02T05:39:13.781Z,8.23
2023-02-02T05:44:13.471Z,4.90
2023-02-02T05:49:13.838Z,10.80
2023-02-02T05:54:10.370Z,15.57
2023-02-02T05:59:07.503Z,12.18
2023-02-02T06:04:04.008Z,10.73
2023-02-02T06:09:00.367Z,14.18
2023-02-02T06:13:56.953Z,5.60
2023-02-02T06:18:53.958Z,10.23
2023-02-02T06:23:51.458Z,8.23
2023-02-02T06:28:49.705Z,9.27
2023-02-02T06:33:47.345Z,9.93
2023-02-02T06:38:44.230Z,10.25
2023-02-02T06:43:40.560Z,8.00
2023-02-02T06:48:36.989Z,5.82
2023-02-02T06:53:34.363Z,5.40
2023-02-02T06:58:31.663Z,11.07
2023-02-02T07:03:27.998Z,2.42
2023-02-02T07:08:24.379Z,4.90
2023-02-02T07:13:20.780Z,9.13
2023-02-02T07:18:17.353Z,1.25
2023-02-02T07:23:13.718Z,5.75
2023-02-02T07:28:10.021Z,1.90
2023-02-02T07:33:06.336Z,3.25
2023-02-02T07:38:03.054Z,4.22
2023-02-02T07:43:00.995Z,7.65
2023-02-02T07:47:58.452Z,5.33
2023-02-02T07:52:55.162Z,4.88
2023-02-02T07:57:54.307Z,4.95
2023-02-02T08:02:50.954Z,5.47
2023-02-02T08:07:48.257Z,4.68
2023-02-02T08:12:44.723Z,4.15
2023-02-02T08:17:45.542Z,5.75
2023-02-02T08:22:42.109Z,7.32
2023-02-02T08:27:38.468Z,6.38
2023-02-02T08:32:34.798Z,11.07
2023-02-02T08:37:31.174Z,5.47
2023-02-02T08:42:27.525Z,5.68
2023-02-02T08:47:23.947Z,6.60
2023-02-02T08:52:20.579Z,5.60
2023-02-02T08:57:17.222Z,7.72
2023-02-02T09:02:17.906Z,9.43
2023-02-02T09:07:14.262Z,6.47
2023-02-02T09:12:10.818Z,4.78
2023-02-02T09:17:07.134Z,7.47
2023-02-02T09:22:03.701Z,7.03
2023-02-02T09:27:00.118Z,8.90
2023-02-02T09:31:56.699Z,6.93
2023-02-02T09:36:54.259Z,7.05
2023-02-02T09:42:18.304Z,5.47
2023-02-02T09:47:32.762Z,7.32
2023-02-02T09:52:36.522Z,15.48
2023-02-02T09:57:49.896Z,14.27
2023-02-02T10:02:50.051Z,15.27
2023-02-02T10:07:51.467Z,13.68
2023-02-02T10:12:51.957Z,9.50
2023-02-02T10:17:57.441Z,11.27
2023-02-02T10:22:57.709Z,6.93
2023-02-02T10:28:07.063Z,11.38
2023-02-02T10:33:16.534Z,7.50
2023-02-02T10:38:37.915Z,5.50
2023-02-02T10:43:57.343Z,12.55
2023-02-02T10:49:13.138Z,2.47
2023-02-02T10:54:28.969Z,4.78
2023-02-02T10:59:32.267Z,13.68
2023-02-02T11:04:48.163Z,7.00
2023-02-02T11:09:44.479Z,11.75
2023-02-02T11:14:47.084Z,7.65
2023-02-02T11:19:43.428Z,12.85
2023-02-02T11:24:46.302Z,11.75
2023-02-02T11:29:47.992Z,13.95
2023-02-02T11:34:44.345Z,4.97
2023-02-02T11:39:42.149Z,7.75
2023-02-02T11:44:40.271Z,6.00
2023-02-02T11:49:43.589Z,10.83
2023-02-02T11:54:40.949Z,11.68
2023-02-02T11:59:39.320Z,9.45
2023-02-02T12:04:35.926Z,5.85
2023-02-02T12:09:32.383Z,10.77
2023-02-02T12:14:55.024Z,9.93
2023-02-02T12:20:31.427Z,19.67
2023-02-02T12:25:39.990Z,7.70
2023-02-02T12:30:52.836Z,5.28
2023-02-02T12:36:23.607Z,9.02
2023-02-02T12:41:45.582Z,5.60
2023-02-02T12:46:52.650Z,9.32
2023-02-02T12:51:59.191Z,10.73
2023-02-02T12:57:04.772Z,5.30
2023-02-02T13:02:08.663Z,10.40
2023-02-02T13:07:25.082Z,11.38
2023-02-02T13:12:24.713Z,13.15
2023-02-02T13:17:36.258Z,8.32
2023-02-02T13:22:39.053Z,12.82
2023-02-02T13:27:38.421Z,7.78
2023-02-02T13:32:40.147Z,12.57
2023-02-02T13:37:39.634Z,7.18
2023-02-02T13:42:48.626Z,10.60
2023-02-02T13:47:55.781Z,9.77
2023-02-02T13:53:02.811Z,9.77
2023-02-02T13:58:22.456Z,11.32
2023-02-02T14:03:40.549Z,7.93
2023-02-02T14:08:42.823Z,11.73
2023-02-02T14:14:04.021Z,12.23
2023-02-02T14:19:02.486Z,11.18
2023-02-02T14:24:22.870Z,9.57
2023-02-02T14:29:39.669Z,17.35
2023-02-02T14:34:40.902Z,11.20
2023-02-02T14:39:48.927Z,13.98
2023-02-02T14:45:07.852Z,8.63
2023-02-02T14:50:04.484Z,18.15
2023-02-02T14:55:01.079Z,5.80
2023-02-02T15:00:01.098Z,9.13
2023-02-02T15:05:28.907Z,10.95
2023-02-02T15:10:56.732Z,10.05
2023-02-02T15:16:07.721Z,13.33
2023-02-02T15:21:07.622Z,14.57
2023-02-02T15:26:13.128Z,10.95
2023-02-02T15:31:22.770Z,11.32
2023-02-02T15:36:26.913Z,11.82
2023-02-02T15:41:32.685Z,11.45
2023-02-02T15:46:33.350Z,13.18
2023-02-02T15:51:30.219Z,9.65
2023-02-02T15:56:29.862Z,10.23
2023-02-02T16:01:30.244Z,12.35
2023-02-02T16:06:28.351Z,10.70
2023-02-02T16:11:24.820Z,16.90
2023-02-02T16:16:27.940Z,12.60
2023-02-02T16:21:26.804Z,14.98
2023-02-02T16:26:27.881Z,10.13
2023-02-02T16:31:25.160Z,13.55
2023-02-02T16:36:26.003Z,10.73
2023-02-02T16:41:32.900Z,10.07
2023-02-02T16:46:48.755Z,16.08
2023-02-02T16:51:48.445Z,12.20
2023-02-02T16:56:48.578Z,17.80
2023-02-02T17:01:52.177Z,15.38
2023-02-02T17:06:52.902Z,17.42
2023-02-02T17:12:03.542Z,19.10
2023-02-02T17:17:01.765Z,20.83
2023-02-02T17:22:01.382Z,14.70
2023-02-02T17:26:58.060Z,20.08
2023-02-02T17:31:54.578Z,15.05
2023-02-02T17:36:51.129Z,13.88
2023-02-02T17:41:48.487Z,13.25
2023-02-02T17:46:45.377Z,14.40
2023-02-02T17:51:43.306Z,13.43
2023-02-02T17:56:40.666Z,12.17
2023-02-02T18:01:41.370Z,15.20
2023-02-02T18:06:38.266Z,14.95
2023-02-02T18:11:34.649Z,13.63
2023-02-02T18:16:31.132Z,17.17
2023-02-02T18:21:27.494Z,14.73
2023-02-02T18:26:23.835Z,19.48
2023-02-02T18:31:21.471Z,18.92
2023-02-02T18:36:20.636Z,20.63
2023-02-02T18:41:18.206Z,20.58
2023-02-02T18:46:16.228Z,23.95
2023-02-02T18:51:16.014Z,18.73
2023-02-02T18:56:13.964Z,16.88
2023-02-02T19:01:16.515Z,21.47
2023-02-02T19:06:31.316Z,24.98
2023-02-02T19:11:34.859Z,21.73
2023-02-02T19:16:33.805Z,22.50
2023-02-02T19:21:30.718Z,22.73
2023-02-02T19:26:28.001Z,22.20
2023-02-02T19:31:24.540Z,23.13
2023-02-02T19:36:27.441Z,24.92
2023-02-02T19:41:25.764Z,27.35
2023-02-02T19:46:26.133Z,23.13
2023-02-02T19:51:34.682Z,30.42
2023-02-02T19:56:37.953Z,29.33
2023-02-02T20:01:35.284Z,27.98
2023-02-02T20:06:32.165Z,28.33
2023-02-02T20:11:35.518Z,28.40
2023-02-02T20:16:43.115Z,24.88
2023-02-02T20:21:43.912Z,31.58
2023-02-02T20:26:40.250Z,28.38
2023-02-02T20:31:38.263Z,30.10
2023-02-02T20:36:40.905Z,34.10
2023-02-02T20:41:37.216Z,33.80
2023-02-02T20:46:33.510Z,38.05
2023-02-02T20:51:29.817Z,42.30
2023-02-02T20:56:26.299Z,44.85
2023-02-02T21:01:23.401Z,45.78
2023-02-02T21:06:20.044Z,51.85
2023-02-02T21:11:16.317Z,51.13
2023-02-02T21:16:12.595Z,55.92
2023-02-02T21:21:08.966Z,57.05
2023-02-02T21:26:05.263Z,58.67
2023-02-02T21:31:01.611Z,64.80
2023-02-02T21:36:20.437Z,72.22
2023-02-02T21:41:16.734Z,68.65
2023-02-02T21:46:29.419Z,72.70
2023-02-02T21:51:32.877Z,74.53
2023-02-02T21:56:39.093Z,65.28
2023-02-02T22:01:39.411Z,65.72
2023-02-02T22:06:36.606Z,64.40
2023-02-02T22:11:45.483Z,65.18
2023-02-02T22:16:48.599Z,67.15
2023-02-02T22:21:44.914Z,66.95
2023-02-02T22:26:41.754Z,55.13
2023-02-02T22:31:38.172Z,60.05
2023-02-02T22:36:34.628Z,59.08
2023-02-02T22:41:31.008Z,60.15
2023-02-02T22:46:27.465Z,54.53
2023-02-02T22:51:23.805Z,56.20
2023-02-02T22:56:20.114Z,70.00
2023-02-02T23:01:17.070Z,52.67
2023-02-02T23:06:13.374Z,50.70
2023-02-02T23:11:09.677Z,45.00
2023-02-02T23:16:06.984Z,46.13
2023-02-02T23:21:03.509Z,53.63
2023-02-02T23:25:59.872Z,45.80
2023-02-02T23:30:59.091Z,45.45
2023-02-02T23:35:55.505Z,40.22
2023-02-02T23:40:51.817Z,42.97
2023-02-02T23:45:49.087Z,45.38
2023-02-02T23:50:46.826Z,35.65
2023-02-02T23:55:43.855Z,33.25
